Hundested, Denmark
Current Conditions -  °F | °C
As of 7:50 AM on Monday 24 Nov 2014 (Local Time) from EKRK Reporting Station
Moderate Rain Moderate Rain  
Wind Chill: 39°   Ceiling: 700
Heat Index: 45°   Visibility: 2.8mi
Dew Point: 45°   Wind: 10mph
Humidity: 100%   Direction: 230°SW
Pressure: 29.88"   Gusts: NA
Location:  55.97°N, 11.87°E
Report Text: EKRK 240650Z AUTO 23009KT 180V260 4600NDV RA BR FEW003///SCT005/// BKN007/// 07/07 Q1012
Loading
Personal Weather Stations






























Interactive Weather Map New forecast layout! Learn more

10-Day Weather Forecast

Advertisements
Track Severe Weather on mobile